createdAt,value
2022-12-23T00:00:40.513Z,28.52
2022-12-23T00:03:07.476Z,22.95
2022-12-23T00:05:39.650Z,31.17
2022-12-23T00:08:08.233Z,31.98
2022-12-23T00:10:38.879Z,39.63
2022-12-23T00:13:25.187Z,28.20
2022-12-23T00:16:10.778Z,40.22
2022-12-23T00:18:38.477Z,22.90
2022-12-23T00:21:09.786Z,26.20
2022-12-23T00:23:40.990Z,23.38
2022-12-23T00:26:17.497Z,22.88
2022-12-23T00:28:45.192Z,26.98
2022-12-23T00:31:13.659Z,23.48
2022-12-23T00:33:44.399Z,20.50
2022-12-23T00:36:30.072Z,22.00
2022-12-23T00:39:17.971Z,23.52
2022-12-23T00:42:03.638Z,24.80
2022-12-23T00:44:30.905Z,22.92
2022-12-23T00:46:57.661Z,29.90
2022-12-23T00:49:42.499Z,22.63
2022-12-23T00:54:40.031Z,23.40
2022-12-23T00:57:07.001Z,30.85
2022-12-23T00:59:34.188Z,30.27
2022-12-23T01:02:19.945Z,31.52
2022-12-23T01:05:05.263Z,17.90
2022-12-23T01:07:32.092Z,30.05
2022-12-23T01:09:58.854Z,37.08
2022-12-23T01:12:25.722Z,34.38
2022-12-23T01:14:52.466Z,31.88
2022-12-23T01:17:19.328Z,24.00
2022-12-23T01:19:46.166Z,36.92
2022-12-23T01:22:12.954Z,25.35
2022-12-23T01:24:39.923Z,19.17
2022-12-23T01:27:06.650Z,35.95
2022-12-23T01:29:34.000Z,33.78
2022-12-23T01:32:00.946Z,21.15
2022-12-23T01:34:34.292Z,19.63
2022-12-23T01:37:03.620Z,18.58
2022-12-23T01:39:30.399Z,22.60
2022-12-23T01:42:16.301Z,22.85
2022-12-23T01:45:06.887Z,20.38
2022-12-23T01:47:45.945Z,18.38
2022-12-23T01:50:44.683Z,22.55
2022-12-23T01:53:53.578Z,28.35
2022-12-23T01:56:28.359Z,23.45
2022-12-23T01:59:09.817Z,31.20
2022-12-23T02:01:55.568Z,30.65
2022-12-23T02:04:25.865Z,22.35
2022-12-23T02:07:11.420Z,23.52
2022-12-23T02:09:40.800Z,18.83
2022-12-23T02:12:36.228Z,31.58
2022-12-23T02:15:40.102Z,18.48
2022-12-23T02:18:40.398Z,27.83
2022-12-23T02:21:39.869Z,16.48
2022-12-23T02:25:02.553Z,24.42
2022-12-23T02:28:06.866Z,29.25
2022-12-23T02:30:52.084Z,20.05
2022-12-23T02:33:42.594Z,23.17
2022-12-23T02:36:50.088Z,12.68
2022-12-23T02:39:21.633Z,12.80
2022-12-23T02:41:57.490Z,21.00
2022-12-23T02:44:42.052Z,18.73
2022-12-23T02:47:16.903Z,23.20
2022-12-23T02:49:52.210Z,22.90
2022-12-23T02:52:27.832Z,23.77
2022-12-23T02:55:03.234Z,21.55
2022-12-23T02:57:37.188Z,19.67
2022-12-23T03:00:06.588Z,27.63
2022-12-23T03:02:39.084Z,21.02
2022-12-23T03:05:27.235Z,24.77
2022-12-23T03:08:02.660Z,28.50
2022-12-23T03:10:55.702Z,33.30
2022-12-23T03:13:34.996Z,26.85
2022-12-23T03:16:12.330Z,15.10
2022-12-23T03:19:11.635Z,19.25
2022-12-23T03:22:01.258Z,19.33
2022-12-23T03:24:48.851Z,19.85
2022-12-23T03:27:45.156Z,18.00
2022-12-23T03:30:18.665Z,16.23
2022-12-23T03:33:04.510Z,26.00
2022-12-23T03:35:41.497Z,14.27
2022-12-23T03:38:11.669Z,12.07
2022-12-23T03:40:48.061Z,13.48
2022-12-23T03:43:30.670Z,24.33
2022-12-23T03:46:07.197Z,24.83
2022-12-23T03:48:41.180Z,11.18
2022-12-23T03:51:18.407Z,14.25
2022-12-23T03:54:10.478Z,14.95
2022-12-23T03:56:49.961Z,16.50
2022-12-23T03:59:25.355Z,17.88
2022-12-23T04:02:11.159Z,17.85
2022-12-23T04:05:14.427Z,23.02
2022-12-23T04:07:58.588Z,16.30
2022-12-23T04:10:27.224Z,18.00
2022-12-23T04:12:55.081Z,15.30
2022-12-23T04:15:25.557Z,23.10
2022-12-23T04:17:55.770Z,32.63
2022-12-23T04:20:23.133Z,27.65
2022-12-23T04:22:49.987Z,29.38
2022-12-23T04:25:17.881Z,20.40
2022-12-23T04:27:44.725Z,30.05
2022-12-23T04:30:13.849Z,34.38
2022-12-23T04:32:42.178Z,24.85
2022-12-23T04:35:10.906Z,21.20
2022-12-23T04:37:38.563Z,15.38
2022-12-23T04:40:06.911Z,28.73
2022-12-23T04:42:34.349Z,13.25
2022-12-23T04:45:01.100Z,15.38
2022-12-23T04:47:27.920Z,13.93
2022-12-23T04:49:54.681Z,15.85
2022-12-23T04:52:21.862Z,16.02
2022-12-23T04:54:48.642Z,26.65
2022-12-23T04:57:16.919Z,29.63
2022-12-23T04:59:43.859Z,25.13
2022-12-23T05:02:11.318Z,28.13
2022-12-23T05:04:38.339Z,26.35
2022-12-23T05:07:05.719Z,31.02
2022-12-23T05:09:32.457Z,32.88
2022-12-23T05:11:59.318Z,30.48
2022-12-23T05:14:26.045Z,23.92
2022-12-23T05:16:52.864Z,29.67
2022-12-23T05:19:19.700Z,30.98
2022-12-23T05:21:46.500Z,30.85
2022-12-23T05:24:13.273Z,27.25
2022-12-23T05:26:40.005Z,26.35
2022-12-23T05:29:06.873Z,21.65
2022-12-23T05:31:33.726Z,32.97
2022-12-23T05:34:06.016Z,21.40
2022-12-23T05:36:33.665Z,31.40
2022-12-23T05:39:00.487Z,27.23
2022-12-23T05:41:27.274Z,27.33
2022-12-23T05:43:54.102Z,16.00
2022-12-23T05:46:26.283Z,15.18
2022-12-23T05:48:53.851Z,21.70
2022-12-23T05:51:20.945Z,29.55
2022-12-23T05:53:47.798Z,22.77
2022-12-23T05:56:14.743Z,22.95
2022-12-23T05:58:41.591Z,32.00
2022-12-23T06:01:08.568Z,25.30
2022-12-23T06:03:35.499Z,25.75
2022-12-23T06:06:02.443Z,31.20
2022-12-23T06:08:29.411Z,31.30
2022-12-23T06:10:56.302Z,46.63
2022-12-23T06:13:23.076Z,49.13
2022-12-23T06:15:49.850Z,20.98
2022-12-23T06:18:17.243Z,34.40
2022-12-23T06:20:47.837Z,51.92
2022-12-23T06:23:14.742Z,37.88
2022-12-23T06:25:41.547Z,47.75
2022-12-23T06:28:08.375Z,21.30
2022-12-23T06:30:35.289Z,31.80
2022-12-23T06:33:02.149Z,29.05
2022-12-23T06:35:28.962Z,42.55
2022-12-23T06:37:55.749Z,35.75
2022-12-23T06:40:22.488Z,29.58
2022-12-23T06:42:49.279Z,30.15
2022-12-23T06:45:16.182Z,49.58
2022-12-23T06:47:42.942Z,34.17
2022-12-23T06:50:10.237Z,29.73
2022-12-23T06:52:37.142Z,36.47
2022-12-23T06:55:04.398Z,38.95
2022-12-23T06:57:31.151Z,50.15
2022-12-23T06:59:57.931Z,19.50
2022-12-23T07:02:24.831Z,35.47
2022-12-23T07:04:51.651Z,44.92
2022-12-23T07:07:18.700Z,24.80
2022-12-23T07:09:45.594Z,32.70
2022-12-23T07:12:12.407Z,25.20
2022-12-23T07:14:39.195Z,37.90
2022-12-23T07:17:06.007Z,36.08
2022-12-23T07:19:32.906Z,44.25
2022-12-23T07:21:59.808Z,35.47
2022-12-23T07:24:26.540Z,44.17
2022-12-23T07:26:55.785Z,40.47
2022-12-23T07:29:22.642Z,42.92
2022-12-23T07:31:49.590Z,34.35
2022-12-23T07:34:16.389Z,38.10
2022-12-23T07:36:43.229Z,40.28
2022-12-23T07:39:10.104Z,40.80
2022-12-23T07:41:36.849Z,25.23
2022-12-23T07:44:08.744Z,43.22
2022-12-23T07:46:35.829Z,41.80
2022-12-23T07:49:02.844Z,37.30
2022-12-23T07:51:29.934Z,46.83
2022-12-23T07:53:57.291Z,44.35
2022-12-23T07:56:24.435Z,45.50
2022-12-23T07:58:53.646Z,41.08
2022-12-23T08:01:21.598Z,49.58
2022-12-23T08:03:48.773Z,53.78
2022-12-23T08:06:16.720Z,44.35
2022-12-23T08:08:46.578Z,52.40
2022-12-23T08:11:15.657Z,48.97
2022-12-23T08:13:44.917Z,49.20
2022-12-23T08:16:12.472Z,55.67
2022-12-23T08:18:41.762Z,49.70
2022-12-23T08:21:19.311Z,56.55
2022-12-23T08:23:48.219Z,58.60
2022-12-23T08:26:21.348Z,65.20
2022-12-23T08:28:50.489Z,54.58
2022-12-23T08:31:31.965Z,72.50
2022-12-23T08:34:01.009Z,55.95
2022-12-23T08:36:34.779Z,73.57
2022-12-23T08:39:07.511Z,71.05
2022-12-23T08:41:40.258Z,44.00
2022-12-23T08:44:07.803Z,92.15
2022-12-23T08:46:35.515Z,61.13
2022-12-23T08:49:02.578Z,72.53
2022-12-23T08:51:29.613Z,88.95
2022-12-23T08:54:01.074Z,58.50
2022-12-23T08:56:35.167Z,82.18
2022-12-23T08:59:03.378Z,94.45
2022-12-23T09:01:33.815Z,93.80
2022-12-23T09:04:06.013Z,91.05
2022-12-23T09:06:38.766Z,74.38
2022-12-23T09:09:06.491Z,93.30
2022-12-23T09:11:34.149Z,100.82
2022-12-23T09:14:02.065Z,99.78
2022-12-23T09:16:29.982Z,69.53
2022-12-23T09:18:57.452Z,87.28
2022-12-23T09:21:25.551Z,62.00
2022-12-23T09:23:52.667Z,57.33
2022-12-23T09:26:27.790Z,84.38
2022-12-23T09:28:55.619Z,99.25
2022-12-23T09:31:23.952Z,69.50
2022-12-23T09:33:53.428Z,77.65
2022-12-23T09:36:22.302Z,77.80
2022-12-23T09:38:55.920Z,74.72
2022-12-23T09:41:36.287Z,74.00
2022-12-23T09:44:33.425Z,69.65
2022-12-23T09:47:06.102Z,60.38
2022-12-23T09:49:34.444Z,74.65
2022-12-23T09:52:06.739Z,70.80
2022-12-23T09:54:46.063Z,69.35
2022-12-23T09:57:41.942Z,61.95
2022-12-23T10:00:16.733Z,68.28
2022-12-23T10:02:55.944Z,60.30
2022-12-23T10:06:13.016Z,56.65
2022-12-23T10:08:46.689Z,46.00
2022-12-23T10:11:20.240Z,64.63
2022-12-23T10:14:00.739Z,59.08
2022-12-23T10:16:55.323Z,43.78
2022-12-23T10:19:45.886Z,52.33
2022-12-23T10:22:40.088Z,56.10
2022-12-23T10:25:37.569Z,58.58
2022-12-23T10:33:52.034Z,46.25
2022-12-23T10:36:49.169Z,32.67
2022-12-23T10:39:41.059Z,32.65
2022-12-23T10:42:50.776Z,38.42
2022-12-23T10:45:32.389Z,39.45
2022-12-23T10:48:08.614Z,39.97
2022-12-23T10:50:47.893Z,30.65
2022-12-23T10:53:37.334Z,38.50
2022-12-23T10:56:07.365Z,39.78
2022-12-23T10:58:42.054Z,46.45
2022-12-23T11:01:21.798Z,41.00
2022-12-23T11:04:14.572Z,36.08
2022-12-23T11:07:10.598Z,33.95
2022-12-23T11:09:52.131Z,34.90
2022-12-23T11:12:40.505Z,37.10
2022-12-23T11:15:39.427Z,40.30
2022-12-23T11:18:18.472Z,36.90
2022-12-23T11:21:03.104Z,36.53
2022-12-23T11:23:35.933Z,39.40
2022-12-23T11:26:11.600Z,34.13
2022-12-23T11:28:49.897Z,26.75
2022-12-23T11:31:28.367Z,25.20
2022-12-23T11:36:33.943Z,27.30
2022-12-23T11:39:03.471Z,22.23
2022-12-23T11:41:42.566Z,26.65
2022-12-23T11:44:20.289Z,29.13
2022-12-23T11:46:47.588Z,32.75
2022-12-23T11:49:23.803Z,26.30
2022-12-23T11:52:11.519Z,22.67
2022-12-23T11:54:38.966Z,24.73
2022-12-23T11:57:19.136Z,29.17
2022-12-23T11:59:57.142Z,24.17
2022-12-23T12:02:43.364Z,27.23
2022-12-23T12:05:16.314Z,28.13
2022-12-23T12:07:48.183Z,26.98
2022-12-23T12:10:27.751Z,30.42
2022-12-23T12:13:05.062Z,33.38
2022-12-23T12:15:44.573Z,30.13
2022-12-23T12:18:17.229Z,30.63
2022-12-23T12:20:55.357Z,35.70
2022-12-23T12:23:48.365Z,24.75
2022-12-23T12:26:28.317Z,27.88
2022-12-23T12:29:17.077Z,28.27
2022-12-23T12:31:55.279Z,30.95
2022-12-23T12:34:33.801Z,24.42
2022-12-23T12:39:37.982Z,29.73
2022-12-23T12:42:10.659Z,29.10
2022-12-23T12:45:10.574Z,27.55
2022-12-23T12:48:22.605Z,31.58
2022-12-23T12:51:04.234Z,35.28
2022-12-23T12:53:33.484Z,30.20
2022-12-23T12:56:19.208Z,31.45
2022-12-23T12:58:46.061Z,26.48
2022-12-23T13:01:40.461Z,33.95
2022-12-23T13:04:34.752Z,21.75
2022-12-23T13:07:52.414Z,22.85
2022-12-23T13:11:01.107Z,21.45
2022-12-23T13:13:54.941Z,21.50
2022-12-23T13:16:33.597Z,28.90
2022-12-23T13:19:16.100Z,24.52
2022-12-23T13:21:59.421Z,24.50
2022-12-23T13:24:46.240Z,24.02
2022-12-23T13:27:19.899Z,26.17
2022-12-23T13:30:14.016Z,22.52
2022-12-23T13:33:33.258Z,18.95
2022-12-23T13:36:05.689Z,22.10
2022-12-23T13:39:16.992Z,20.00
2022-12-23T13:41:59.875Z,21.80
2022-12-23T13:44:34.479Z,21.08
2022-12-23T13:48:10.758Z,24.10
2022-12-23T13:51:06.745Z,19.67
2022-12-23T13:53:56.968Z,13.50
2022-12-23T13:56:42.750Z,19.88
2022-12-23T13:59:11.838Z,19.95
2022-12-23T14:01:52.461Z,22.92
2022-12-23T14:04:58.656Z,20.60
2022-12-23T14:07:30.270Z,25.63
2022-12-23T14:10:10.340Z,22.35
2022-12-23T14:12:42.760Z,24.17
2022-12-23T14:15:42.450Z,14.77
2022-12-23T14:18:30.630Z,18.17
2022-12-23T14:21:17.803Z,18.23
2022-12-23T14:24:04.589Z,20.85
2022-12-23T14:27:05.128Z,16.02
2022-12-23T14:30:03.191Z,15.45
2022-12-23T14:32:46.873Z,12.23
2022-12-23T14:35:25.928Z,13.40
2022-12-23T14:38:29.546Z,16.77
2022-12-23T14:41:22.929Z,13.05
2022-12-23T14:43:57.378Z,13.07
2022-12-23T14:46:36.347Z,12.50
2022-12-23T14:49:37.064Z,18.02
2022-12-23T14:51:51.159Z,12.00
2022-12-23T14:54:38.249Z,13.98
2022-12-23T14:57:21.627Z,9.88
2022-12-23T15:00:02.604Z,12.02
2022-12-23T15:02:37.364Z,13.13
2022-12-23T15:05:05.364Z,15.07
2022-12-23T15:07:40.744Z,10.80
2022-12-23T15:10:14.731Z,13.93
2022-12-23T15:12:51.728Z,13.63
2022-12-23T15:15:28.141Z,17.90
2022-12-23T15:18:04.701Z,10.82
2022-12-23T15:20:31.833Z,13.98
2022-12-23T15:23:07.946Z,13.15
2022-12-23T15:25:40.721Z,16.58
2022-12-23T15:28:20.208Z,14.48
2022-12-23T15:30:55.086Z,15.13
2022-12-23T15:36:15.249Z,18.77
2022-12-23T15:38:42.258Z,20.27
2022-12-23T15:41:18.523Z,17.63
2022-12-23T15:43:46.126Z,18.30
2022-12-23T15:46:29.916Z,21.70
2022-12-23T15:48:58.192Z,18.92
2022-12-23T15:52:06.505Z,21.45
2022-12-23T15:54:46.301Z,21.33
2022-12-23T15:57:20.149Z,22.88
2022-12-23T15:59:47.464Z,22.95
2022-12-23T16:02:59.727Z,22.67
2022-12-23T16:05:30.740Z,25.80
2022-12-23T16:08:19.383Z,28.48
2022-12-23T16:10:57.682Z,25.27
2022-12-23T16:13:25.866Z,22.67
2022-12-23T16:15:52.940Z,20.75
2022-12-23T16:18:19.643Z,15.43
2022-12-23T16:20:53.742Z,15.00
2022-12-23T16:23:22.203Z,22.95
2022-12-23T16:25:53.337Z,14.88
2022-12-23T16:28:26.309Z,22.50
2022-12-23T16:30:57.532Z,11.07
2022-12-23T16:33:36.987Z,17.05
2022-12-23T16:36:23.738Z,17.30
2022-12-23T16:38:52.682Z,11.15
2022-12-23T16:41:20.591Z,15.65
2022-12-23T16:43:52.381Z,13.27
2022-12-23T16:46:22.719Z,13.10
2022-12-23T16:49:05.025Z,13.75
2022-12-23T16:51:34.210Z,10.85
2022-12-23T16:54:01.822Z,10.75
2022-12-23T16:56:34.734Z,12.32
2022-12-23T16:59:01.947Z,19.95
2022-12-23T17:01:36.325Z,12.77
2022-12-23T17:04:05.588Z,11.88
2022-12-23T17:06:33.503Z,10.68
2022-12-23T17:09:00.293Z,9.88
2022-12-23T17:11:42.118Z,21.90
2022-12-23T17:14:20.902Z,15.27
2022-12-23T17:16:48.639Z,19.27
2022-12-23T17:19:19.261Z,18.27
2022-12-23T17:21:58.178Z,16.25
2022-12-23T17:24:27.151Z,21.17
2022-12-23T17:26:54.739Z,24.37
2022-12-23T17:29:21.544Z,21.00
2022-12-23T17:31:49.807Z,24.52
2022-12-23T17:34:23.607Z,19.13
2022-12-23T17:36:51.392Z,15.15
2022-12-23T17:39:20.041Z,22.38
2022-12-23T17:41:47.978Z,20.17
2022-12-23T17:44:17.262Z,22.67
2022-12-23T17:46:47.860Z,21.15
2022-12-23T17:49:14.868Z,19.55
2022-12-23T17:51:42.802Z,16.90
2022-12-23T17:54:23.922Z,22.08
2022-12-23T17:56:52.791Z,16.08
2022-12-23T17:59:19.989Z,20.65
2022-12-23T18:01:46.902Z,31.88
2022-12-23T18:04:13.743Z,25.08
2022-12-23T18:06:40.541Z,24.17
2022-12-23T18:09:07.440Z,26.85
2022-12-23T18:11:41.805Z,34.88
2022-12-23T18:14:29.179Z,29.13
2022-12-23T18:16:56.453Z,23.60
2022-12-23T18:19:23.427Z,20.92
2022-12-23T18:21:51.683Z,26.50
2022-12-23T18:24:18.501Z,28.50
2022-12-23T18:26:46.013Z,17.95
2022-12-23T18:29:12.759Z,17.60
2022-12-23T18:31:51.423Z,28.83
2022-12-23T18:34:20.041Z,30.85
2022-12-23T18:36:48.324Z,28.80
2022-12-23T18:39:15.410Z,32.90
2022-12-23T18:41:42.198Z,31.40
2022-12-23T18:44:19.958Z,22.73
2022-12-23T18:46:48.237Z,28.35
2022-12-23T18:49:15.053Z,28.67
2022-12-23T18:51:41.798Z,25.02
2022-12-23T18:54:16.303Z,25.25
2022-12-23T18:56:43.518Z,35.35
2022-12-23T18:59:27.163Z,26.00
2022-12-23T19:01:57.505Z,25.95
2022-12-23T19:04:24.641Z,24.90
2022-12-23T19:06:51.462Z,28.83
2022-12-23T19:09:22.280Z,27.00
2022-12-23T19:11:52.174Z,24.40
2022-12-23T19:14:19.055Z,24.90
2022-12-23T19:16:51.291Z,26.55
2022-12-23T19:19:19.551Z,25.08
2022-12-23T19:21:46.499Z,31.77
2022-12-23T19:24:14.041Z,27.35
2022-12-23T19:26:40.802Z,23.58
2022-12-23T19:29:08.876Z,28.80
2022-12-23T19:31:35.847Z,23.05
2022-12-23T19:34:02.601Z,21.90
2022-12-23T19:36:29.796Z,25.60
2022-12-23T19:38:57.653Z,18.55
2022-12-23T19:41:25.225Z,22.70
2022-12-23T19:43:52.185Z,31.40
2022-12-23T19:46:19.530Z,19.55
2022-12-23T19:48:53.499Z,25.10
2022-12-23T19:51:20.542Z,28.77
2022-12-23T19:53:51.532Z,23.88
2022-12-23T19:56:23.282Z,14.98
2022-12-23T19:58:50.337Z,19.67
2022-12-23T20:01:25.412Z,25.30
2022-12-23T20:03:55.737Z,23.58
2022-12-23T20:06:35.037Z,21.35
2022-12-23T20:09:04.107Z,24.83
2022-12-23T20:11:37.397Z,29.58
2022-12-23T20:14:05.716Z,17.15
2022-12-23T20:16:34.070Z,23.48
2022-12-23T20:19:01.033Z,31.73
2022-12-23T20:21:27.886Z,12.30
2022-12-23T20:23:54.813Z,28.02
2022-12-23T20:26:23.606Z,20.73
2022-12-23T20:28:51.335Z,31.63
2022-12-23T20:31:25.359Z,27.15
2022-12-23T20:33:53.643Z,21.90
2022-12-23T20:36:24.579Z,23.73
2022-12-23T20:38:52.319Z,27.75
2022-12-23T20:41:23.147Z,22.95
2022-12-23T20:44:23.536Z,20.10
2022-12-23T20:46:37.159Z,21.85
2022-12-23T20:49:04.122Z,24.63
2022-12-23T20:51:30.889Z,18.10
2022-12-23T20:54:00.981Z,17.50
2022-12-23T20:56:30.199Z,30.77
2022-12-23T20:58:59.211Z,19.50
2022-12-23T21:01:46.378Z,15.45
2022-12-23T21:04:16.721Z,21.63
2022-12-23T21:06:44.769Z,24.55
2022-12-23T21:09:14.815Z,21.88
2022-12-23T21:11:44.928Z,22.75
2022-12-23T21:14:12.798Z,19.55
2022-12-23T21:16:41.170Z,24.80
2022-12-23T21:19:15.634Z,23.08
2022-12-23T21:21:42.431Z,19.45
2022-12-23T21:24:11.090Z,10.68
2022-12-23T21:26:38.664Z,14.20
2022-12-23T21:29:08.749Z,17.60
2022-12-23T21:31:40.449Z,22.60
2022-12-23T21:34:10.085Z,16.45
2022-12-23T21:36:38.870Z,22.48
2022-12-23T21:39:07.821Z,21.13
2022-12-23T21:41:38.314Z,12.13
2022-12-23T21:44:05.983Z,18.05
2022-12-23T21:46:33.304Z,23.08
2022-12-23T21:49:01.215Z,24.30
2022-12-23T21:51:38.861Z,17.60
2022-12-23T21:54:08.774Z,17.98
2022-12-23T21:56:35.977Z,16.45
2022-12-23T21:59:07.679Z,23.52
2022-12-23T22:01:35.216Z,28.70
2022-12-23T22:04:03.082Z,18.15
2022-12-23T22:06:37.227Z,17.20
2022-12-23T22:09:06.960Z,12.50
2022-12-23T22:11:36.883Z,15.25
2022-12-23T22:14:07.776Z,9.75
2022-12-23T22:16:36.150Z,18.90
2022-12-23T22:19:06.166Z,10.25
2022-12-23T22:21:34.238Z,17.20
2022-12-23T22:24:02.419Z,16.20
2022-12-23T22:26:32.704Z,11.73
2022-12-23T22:29:03.943Z,15.48
2022-12-23T22:31:36.761Z,18.08
2022-12-23T22:34:05.079Z,12.85
2022-12-23T22:36:33.140Z,15.15
2022-12-23T22:39:02.239Z,15.80
2022-12-23T22:41:30.840Z,15.65
2022-12-23T22:43:59.261Z,18.65
2022-12-23T22:46:27.569Z,20.00
2022-12-23T22:48:55.109Z,22.92
2022-12-23T22:51:29.352Z,22.38
2022-12-23T22:53:56.542Z,26.65
2022-12-23T22:56:25.500Z,22.17
2022-12-23T22:58:54.190Z,25.33
2022-12-23T23:01:31.767Z,24.38
2022-12-23T23:04:02.007Z,22.90
2022-12-23T23:06:37.723Z,13.23
2022-12-23T23:09:07.525Z,21.33
2022-12-23T23:11:34.598Z,21.08
2022-12-23T23:14:01.526Z,19.48
2022-12-23T23:16:28.471Z,17.42
2022-12-23T23:18:55.553Z,15.93
2022-12-23T23:21:22.614Z,19.38
2022-12-23T23:23:49.888Z,15.15
2022-12-23T23:26:18.400Z,22.45
2022-12-23T23:28:45.236Z,26.40
2022-12-23T23:33:59.877Z,22.60
2022-12-23T23:36:26.815Z,20.90
2022-12-23T23:38:53.707Z,18.27
2022-12-23T23:41:23.296Z,20.35
2022-12-23T23:43:52.022Z,15.20
2022-12-23T23:46:19.521Z,22.60
2022-12-23T23:48:46.504Z,25.55
2022-12-23T23:51:17.656Z,26.10
2022-12-23T23:53:44.462Z,27.90
2022-12-23T23:56:11.242Z,27.65
2022-12-23T23:58:38.371Z,21.83
